createdAt,value
2019-02-18T00:02:31.981Z,101058.77
2019-02-18T00:05:22.052Z,101055.02
2019-02-18T00:08:12.279Z,101053.55
2019-02-18T00:11:02.189Z,101051.52
2019-02-18T00:13:53.119Z,101047.66
2019-02-18T00:16:43.220Z,101052.20
2019-02-18T00:19:32.720Z,101052.53
2019-02-18T00:22:22.578Z,101055.23
2019-02-18T00:25:13.230Z,101059.78
2019-02-18T00:28:03.297Z,101058.01
2019-02-18T00:30:53.263Z,101057.30
2019-02-18T00:33:43.332Z,101059.37
2019-02-18T00:36:33.644Z,101057.39
2019-02-18T00:39:23.429Z,101054.16
2019-02-18T00:42:13.057Z,101053.78
2019-02-18T00:45:03.560Z,101055.80
2019-02-18T00:47:53.679Z,101057.84
2019-02-18T00:50:44.243Z,101056.20
2019-02-18T00:53:34.339Z,101056.72
2019-02-18T00:56:24.353Z,101047.70
2019-02-18T00:59:15.015Z,101049.94
2019-02-18T01:02:04.970Z,101052.88
2019-02-18T01:04:54.786Z,101049.71
2019-02-18T01:07:44.669Z,101055.75
2019-02-18T01:10:34.476Z,101053.42
2019-02-18T01:13:24.624Z,101060.48
2019-02-18T01:16:14.508Z,101056.42
2019-02-18T01:19:04.611Z,101056.36
2019-02-18T01:21:54.623Z,101051.10
2019-02-18T01:24:44.733Z,101053.41
2019-02-18T01:27:34.540Z,101055.47
2019-02-18T01:30:24.554Z,101054.28
2019-02-18T01:33:14.540Z,101054.14
2019-02-18T01:36:04.813Z,101044.50
2019-02-18T01:38:54.879Z,101046.00
2019-02-18T01:41:44.631Z,101040.33
2019-02-18T01:44:34.611Z,101040.68
2019-02-18T01:47:24.839Z,101032.33
2019-02-18T01:50:15.682Z,101027.63
2019-02-18T01:53:05.645Z,101034.81
2019-02-18T01:55:55.710Z,101027.27
2019-02-18T01:58:45.751Z,101021.05
2019-02-18T02:01:35.579Z,101013.16
2019-02-18T02:04:25.697Z,101017.33
2019-02-18T02:07:15.560Z,101014.43
2019-02-18T02:10:06.377Z,101013.04
2019-02-18T02:13:35.340Z,101014.69
2019-02-18T02:16:25.048Z,101009.86
2019-02-18T02:19:15.216Z,101001.02
2019-02-18T02:22:04.726Z,100999.34
2019-02-18T02:24:55.109Z,100997.80
2019-02-18T02:27:45.187Z,100994.26
2019-02-18T02:30:34.798Z,100984.03
2019-02-18T02:33:24.609Z,100990.23
2019-02-18T02:36:14.327Z,100989.59
2019-02-18T02:39:05.317Z,100990.98
2019-02-18T02:41:56.690Z,100985.56
2019-02-18T02:44:47.040Z,100989.59
2019-02-18T02:47:36.851Z,100991.84
2019-02-18T02:50:27.099Z,100989.85
2019-02-18T02:53:17.141Z,100985.69
2019-02-18T02:56:07.242Z,100986.37
2019-02-18T02:58:57.471Z,100978.00
2019-02-18T03:01:47.179Z,100977.69
2019-02-18T03:04:37.006Z,100971.68
2019-02-18T03:07:26.910Z,100968.66
2019-02-18T03:10:17.419Z,100971.89
2019-02-18T03:13:07.095Z,100968.22
2019-02-18T03:15:56.863Z,100976.27
2019-02-18T03:18:46.492Z,100965.28
2019-02-18T03:21:36.663Z,100973.83
2019-02-18T03:24:26.713Z,100970.81
2019-02-18T03:27:17.017Z,100969.02
2019-02-18T03:30:41.774Z,100974.23
2019-02-18T03:33:37.703Z,100970.36
2019-02-18T03:36:27.508Z,100966.59
2019-02-18T03:39:17.260Z,100973.63
2019-02-18T03:42:07.318Z,100971.11
2019-02-18T03:44:57.194Z,100969.31
2019-02-18T03:47:46.622Z,100973.50
2019-02-18T03:50:36.693Z,100965.50
2019-02-18T03:53:27.201Z,100966.05
2019-02-18T03:56:17.315Z,100974.81
2019-02-18T03:59:07.184Z,100966.48
2019-02-18T04:01:56.937Z,100975.91
2019-02-18T04:04:47.442Z,100976.79
2019-02-18T04:07:37.595Z,100979.55
2019-02-18T04:10:27.673Z,100978.75
2019-02-18T04:13:17.681Z,100975.80
2019-02-18T04:16:07.675Z,100975.49
2019-02-18T04:18:58.198Z,100966.88
2019-02-18T04:21:47.976Z,100970.89
2019-02-18T04:24:38.055Z,100968.96
2019-02-18T04:27:27.929Z,100965.84
2019-02-18T04:30:17.976Z,100972.41
2019-02-18T04:33:07.872Z,100971.93
2019-02-18T04:35:57.996Z,100967.94
2019-02-18T04:38:54.203Z,100974.86
2019-02-18T04:41:38.825Z,100968.36
2019-02-18T04:44:29.169Z,100966.23
2019-02-18T04:47:19.062Z,100966.58
2019-02-18T04:50:09.445Z,100960.91
2019-02-18T04:52:59.225Z,100962.58
2019-02-18T04:55:48.885Z,100964.92
2019-02-18T04:58:38.951Z,100964.62
2019-02-18T05:01:28.546Z,100967.28
2019-02-18T05:04:18.764Z,100968.63
2019-02-18T05:07:08.357Z,100958.95
2019-02-18T05:09:58.632Z,100967.80
2019-02-18T05:12:47.957Z,100963.31
2019-02-18T05:15:40.109Z,100963.64
2019-02-18T05:18:29.434Z,100963.48
2019-02-18T05:21:19.455Z,100960.64
2019-02-18T05:24:09.418Z,100957.80
2019-02-18T05:26:59.278Z,100963.50
2019-02-18T05:29:49.445Z,100955.30
2019-02-18T05:32:39.751Z,100956.81
2019-02-18T05:35:30.330Z,100959.00
2019-02-18T05:38:19.647Z,100962.84
2019-02-18T05:41:09.530Z,100964.01
2019-02-18T05:44:00.450Z,100968.02
2019-02-18T05:46:50.380Z,100973.86
2019-02-18T05:49:40.359Z,100966.83
2019-02-18T05:52:30.860Z,100975.52
2019-02-18T05:55:20.879Z,100969.02
2019-02-18T05:58:10.821Z,100970.19
2019-02-18T06:01:00.416Z,100970.19
2019-02-18T06:03:50.098Z,100972.34
2019-02-18T06:06:39.792Z,100973.85
2019-02-18T06:09:30.365Z,100966.34
2019-02-18T06:12:20.874Z,100978.00
2019-02-18T06:15:10.756Z,100971.16
2019-02-18T06:18:00.535Z,100978.50
2019-02-18T06:20:50.444Z,100982.33
2019-02-18T06:23:43.076Z,100982.33
2019-02-18T06:26:33.021Z,100979.48
2019-02-18T06:29:22.842Z,100978.68
2019-02-18T06:32:12.719Z,100981.66
2019-02-18T06:35:02.447Z,100977.66
2019-02-18T06:37:52.296Z,100978.33
2019-02-18T06:40:42.554Z,100979.31
2019-02-18T06:43:32.059Z,100984.34
2019-02-18T06:46:37.092Z,100990.52
2019-02-18T06:49:27.386Z,100992.34
2019-02-18T06:52:17.171Z,100989.67
2019-02-18T06:55:06.916Z,100994.69
2019-02-18T06:58:04.352Z,100994.88
2019-02-18T07:01:11.844Z,100995.39
2019-02-18T07:04:26.754Z,100990.52
2019-02-18T07:07:26.045Z,101001.13
2019-02-18T07:10:38.056Z,100997.84
2019-02-18T07:13:28.133Z,100995.89
2019-02-18T07:16:17.988Z,100988.55
2019-02-18T07:19:07.870Z,100978.06
2019-02-18T07:21:57.362Z,100978.17
2019-02-18T07:24:47.121Z,100977.86
2019-02-18T07:27:37.011Z,100981.30
2019-02-18T07:30:27.177Z,100978.47
2019-02-18T07:33:16.490Z,100974.02
2019-02-18T07:36:06.667Z,100974.91
2019-02-18T07:38:56.929Z,100975.22
2019-02-18T07:41:46.673Z,100971.90
2019-02-18T07:44:36.727Z,100979.36
2019-02-18T07:47:26.518Z,100975.92
2019-02-18T07:50:20.796Z,100977.52
2019-02-18T07:53:07.697Z,100969.53
2019-02-18T07:55:57.572Z,100969.28
2019-02-18T07:58:47.371Z,100973.27
2019-02-18T08:01:37.304Z,100974.92
2019-02-18T08:04:27.158Z,100969.28
2019-02-18T08:07:17.305Z,100969.95
2019-02-18T08:10:12.141Z,100968.80
2019-02-18T08:13:00.789Z,100969.78
2019-02-18T08:15:50.261Z,100969.57
2019-02-18T08:18:39.937Z,100969.39
2019-02-18T08:21:30.166Z,100972.09
2019-02-18T08:24:19.980Z,100967.67
2019-02-18T08:27:10.090Z,100960.11
2019-02-18T08:30:00.359Z,100954.11
2019-02-18T08:32:50.063Z,100950.84
2019-02-18T08:35:39.848Z,100947.81
2019-02-18T08:38:29.929Z,100950.58
2019-02-18T08:41:19.810Z,100944.97
2019-02-18T08:44:09.601Z,100945.59
2019-02-18T08:46:59.712Z,100955.80
2019-02-18T08:49:49.678Z,100949.77
2019-02-18T08:52:39.972Z,100947.08
2019-02-18T08:55:30.065Z,100939.81
2019-02-18T08:58:20.130Z,100944.98
2019-02-18T09:01:09.903Z,100944.28
2019-02-18T09:03:59.677Z,100939.42
2019-02-18T09:06:49.462Z,100936.14
2019-02-18T09:09:39.352Z,100930.72
2019-02-18T09:12:29.234Z,100929.14
2019-02-18T09:15:19.706Z,100934.00
2019-02-18T09:18:10.084Z,100930.70
2019-02-18T09:21:00.295Z,100931.44
2019-02-18T09:24:07.563Z,100933.13
2019-02-18T09:26:57.450Z,100935.67
2019-02-18T09:29:47.363Z,100934.00
2019-02-18T09:32:37.430Z,100923.89
2019-02-18T09:35:27.616Z,100931.36
2019-02-18T09:38:24.866Z,100930.73
2019-02-18T09:41:09.243Z,100922.94
2019-02-18T09:43:58.926Z,100925.36
2019-02-18T09:46:49.885Z,100919.58
2019-02-18T09:49:39.466Z,100919.69
2019-02-18T09:52:29.162Z,100911.95
2019-02-18T09:55:19.004Z,100919.19
2019-02-18T09:58:09.124Z,100914.61
2019-02-18T10:00:59.109Z,100902.75
2019-02-18T10:03:49.135Z,100901.53
2019-02-18T10:06:39.299Z,100901.77
2019-02-18T10:09:29.185Z,100896.91
2019-02-18T10:12:19.486Z,100889.41
2019-02-18T10:15:10.815Z,100882.66
2019-02-18T10:18:00.937Z,100892.28
2019-02-18T10:20:50.421Z,100883.16
2019-02-18T10:23:39.779Z,100885.56
2019-02-18T10:26:29.862Z,100884.63
2019-02-18T10:29:19.911Z,100878.28
2019-02-18T10:32:09.864Z,100875.38
2019-02-18T10:34:59.557Z,100879.11
2019-02-18T10:37:55.180Z,100879.98
2019-02-18T10:40:41.575Z,100874.09
2019-02-18T10:43:32.745Z,100868.55
2019-02-18T10:46:23.527Z,100863.45
2019-02-18T10:49:19.939Z,100859.30
2019-02-18T10:52:05.003Z,100865.16
2019-02-18T10:54:55.233Z,100867.06
2019-02-18T10:57:45.087Z,100855.70
2019-02-18T11:00:35.098Z,100854.81
2019-02-18T11:03:25.074Z,100852.64
2019-02-18T11:06:15.216Z,100850.66
2019-02-18T11:09:06.644Z,100840.30
2019-02-18T11:11:57.531Z,100834.56
2019-02-18T11:14:47.676Z,100822.88
2019-02-18T11:17:39.159Z,100815.12
2019-02-18T11:20:28.619Z,100815.16
2019-02-18T11:23:18.370Z,100807.61
2019-02-18T11:26:08.401Z,100795.61
2019-02-18T11:28:58.085Z,100801.46
2019-02-18T11:31:48.065Z,100799.84
2019-02-18T11:34:39.288Z,100798.70
2019-02-18T11:37:29.414Z,100799.66
2019-02-18T11:40:19.587Z,100793.66
2019-02-18T11:43:09.388Z,100789.20
2019-02-18T11:45:59.167Z,100785.68
2019-02-18T11:48:49.117Z,100785.36
2019-02-18T11:51:39.392Z,100780.01
2019-02-18T11:54:29.528Z,100780.16
2019-02-18T11:57:19.666Z,100779.14
2019-02-18T12:00:11.577Z,100774.70
2019-02-18T12:03:05.553Z,100767.79
2019-02-18T12:05:53.100Z,100768.16
2019-02-18T12:08:43.284Z,100759.59
2019-02-18T12:11:37.878Z,100755.20
2019-02-18T12:14:27.383Z,100758.09
2019-02-18T12:17:20.561Z,100751.44
2019-02-18T12:20:12.073Z,100748.02
2019-02-18T12:23:03.047Z,100737.84
2019-02-18T12:25:53.480Z,100726.66
2019-02-18T12:28:45.151Z,100730.36
2019-02-18T12:31:35.943Z,100722.21
2019-02-18T12:34:25.439Z,100718.95
2019-02-18T12:37:15.684Z,100717.17
2019-02-18T12:40:06.145Z,100716.81
2019-02-18T12:42:56.550Z,100715.30
2019-02-18T12:45:46.752Z,100708.91
2019-02-18T12:48:37.086Z,100706.89
2019-02-18T12:51:28.141Z,100707.35
2019-02-18T12:54:18.136Z,100697.95
2019-02-18T12:57:08.044Z,100701.87
2019-02-18T12:59:57.744Z,100701.45
2019-02-18T13:02:47.983Z,100697.92
2019-02-18T13:05:37.862Z,100693.19
2019-02-18T13:08:27.936Z,100689.38
2019-02-18T13:11:17.750Z,100692.48
2019-02-18T13:14:07.725Z,100685.52
2019-02-18T13:16:57.311Z,100680.67
2019-02-18T13:19:47.453Z,100679.70
2019-02-18T13:22:37.178Z,100668.26
2019-02-18T13:25:26.752Z,100670.89
2019-02-18T13:28:16.741Z,100670.88
2019-02-18T13:31:06.964Z,100671.70
2019-02-18T13:33:57.613Z,100663.25
2019-02-18T13:36:47.571Z,100664.37
2019-02-18T13:39:37.933Z,100655.16
2019-02-18T13:42:27.805Z,100656.41
2019-02-18T13:45:17.153Z,100647.05
2019-02-18T13:48:07.159Z,100646.58
2019-02-18T13:50:56.551Z,100643.27
2019-02-18T13:53:46.316Z,100638.39
2019-02-18T13:56:36.358Z,100639.25
2019-02-18T13:59:25.920Z,100635.91
2019-02-18T14:02:15.873Z,100634.57
2019-02-18T14:05:06.444Z,100632.95
2019-02-18T14:07:56.130Z,100624.77
2019-02-18T14:10:45.793Z,100615.16
2019-02-18T14:13:35.696Z,100607.67
2019-02-18T14:16:25.752Z,100611.77
2019-02-18T14:19:15.530Z,100610.37
2019-02-18T14:22:08.184Z,100611.93
2019-02-18T14:24:58.067Z,100604.69
2019-02-18T14:27:48.059Z,100606.15
2019-02-18T14:30:38.356Z,100600.78
2019-02-18T14:33:27.914Z,100600.64
2019-02-18T14:36:17.464Z,100596.56
2019-02-18T14:39:19.325Z,100598.81
2019-02-18T14:42:09.140Z,100599.66
2019-02-18T14:44:59.122Z,100590.69
2019-02-18T14:47:49.763Z,100586.63
2019-02-18T14:50:39.789Z,100584.75
2019-02-18T14:53:29.461Z,100582.85
2019-02-18T14:56:20.770Z,100579.03
2019-02-18T14:59:11.171Z,100580.94
2019-02-18T15:02:01.251Z,100574.39
2019-02-18T15:04:51.003Z,100573.27
2019-02-18T15:07:40.795Z,100574.95
2019-02-18T15:10:30.741Z,100575.52
2019-02-18T15:13:20.746Z,100571.45
2019-02-18T15:16:11.002Z,100572.30
2019-02-18T15:19:00.543Z,100567.12
2019-02-18T15:21:50.464Z,100566.34
2019-02-18T15:24:40.276Z,100557.59
2019-02-18T15:27:30.392Z,100551.30
2019-02-18T15:30:21.109Z,100551.09
2019-02-18T15:33:10.861Z,100549.76
2019-02-18T15:36:01.057Z,100547.87
2019-02-18T15:38:51.298Z,100546.81
2019-02-18T15:41:41.451Z,100542.20
2019-02-18T15:44:31.555Z,100539.20
2019-02-18T15:47:21.419Z,100538.69
2019-02-18T15:50:12.010Z,100539.28
2019-02-18T15:53:01.826Z,100532.75
2019-02-18T15:55:51.221Z,100542.64
2019-02-18T15:58:41.256Z,100534.98
2019-02-18T16:01:31.273Z,100525.45
2019-02-18T16:04:21.596Z,100535.59
2019-02-18T16:07:11.726Z,100536.67
2019-02-18T16:10:02.375Z,100530.95
2019-02-18T16:12:52.353Z,100529.06
2019-02-18T16:15:42.137Z,100525.23
2019-02-18T16:18:31.949Z,100524.95
2019-02-18T16:21:21.856Z,100526.27
2019-02-18T16:24:19.650Z,100527.86
2019-02-18T16:27:03.400Z,100524.77
2019-02-18T16:29:53.697Z,100525.23
2019-02-18T16:32:43.867Z,100525.94
2019-02-18T16:35:33.425Z,100526.59
2019-02-18T16:38:23.489Z,100532.16
2019-02-18T16:41:13.424Z,100530.08
2019-02-18T16:44:03.427Z,100533.44
2019-02-18T16:46:54.158Z,100529.44
2019-02-18T16:49:44.285Z,100527.55
2019-02-18T16:52:35.045Z,100519.20
2019-02-18T16:55:25.359Z,100520.86
2019-02-18T16:58:15.415Z,100521.98
2019-02-18T17:01:07.062Z,100530.14
2019-02-18T17:03:56.978Z,100525.81
2019-02-18T17:06:46.625Z,100528.52
2019-02-18T17:09:36.344Z,100542.11
2019-02-18T17:12:26.108Z,100545.13
2019-02-18T17:15:15.978Z,100541.60
2019-02-18T17:18:06.122Z,100543.28
2019-02-18T17:20:56.340Z,100544.90
2019-02-18T17:23:46.301Z,100544.90
2019-02-18T17:26:36.263Z,100540.21
2019-02-18T17:29:25.555Z,100537.84
2019-02-18T17:32:15.626Z,100531.04
2019-02-18T17:35:06.835Z,100529.91
2019-02-18T17:37:56.637Z,100528.56
2019-02-18T17:40:47.606Z,100532.87
2019-02-18T17:43:38.047Z,100532.08
2019-02-18T17:46:28.358Z,100526.35
2019-02-18T17:49:18.402Z,100530.17
2019-02-18T17:52:09.723Z,100530.12
2019-02-18T17:55:00.298Z,100536.09
2019-02-18T17:57:50.265Z,100530.34
2019-02-18T18:00:41.809Z,100520.56
2019-02-18T18:03:31.351Z,100524.42
2019-02-18T18:06:21.571Z,100525.22
2019-02-18T18:09:11.628Z,100522.30
2019-02-18T18:12:01.521Z,100522.41
2019-02-18T18:14:51.471Z,100511.61
2019-02-18T18:17:41.611Z,100519.51
2019-02-18T18:20:31.372Z,100522.03
2019-02-18T18:23:21.384Z,100519.63
2019-02-18T18:26:10.812Z,100525.13
2019-02-18T18:29:00.482Z,100513.48
2019-02-18T18:31:50.545Z,100510.72
2019-02-18T18:34:40.606Z,100513.22
2019-02-18T18:37:30.333Z,100508.00
2019-02-18T18:40:20.413Z,100505.30
2019-02-18T18:43:10.565Z,100507.55
2019-02-18T18:46:00.258Z,100502.95
2019-02-18T18:48:50.342Z,100506.12
2019-02-18T18:51:39.867Z,100505.20
2019-02-18T18:54:39.240Z,100503.69
2019-02-18T18:57:34.887Z,100504.16
2019-02-18T19:00:41.065Z,100502.05
2019-02-18T19:03:36.525Z,100503.66
2019-02-18T19:06:34.985Z,100506.14
2019-02-18T19:09:27.989Z,100504.80
2019-02-18T19:12:17.975Z,100509.96
2019-02-18T19:15:20.046Z,100512.23
2019-02-18T19:18:09.933Z,100512.08
2019-02-18T19:21:00.208Z,100508.63
2019-02-18T19:23:50.183Z,100518.23
2019-02-18T19:26:39.434Z,100518.06
2019-02-18T19:29:28.965Z,100516.69
2019-02-18T19:32:19.003Z,100526.72
2019-02-18T19:35:09.681Z,100526.83
2019-02-18T19:37:59.787Z,100527.31
2019-02-18T19:40:49.896Z,100532.95
2019-02-18T19:43:39.675Z,100528.58
2019-02-18T19:46:29.587Z,100527.47
2019-02-18T19:49:20.468Z,100527.61
2019-02-18T19:52:11.211Z,100516.34
2019-02-18T19:55:00.782Z,100521.11
2019-02-18T19:57:52.046Z,100519.38
2019-02-18T20:00:41.837Z,100522.95
2019-02-18T20:03:31.435Z,100518.40
2019-02-18T20:06:21.945Z,100516.55
2019-02-18T20:09:15.886Z,100513.38
2019-02-18T20:12:05.965Z,100522.00
2019-02-18T20:14:56.229Z,100524.92
2019-02-18T20:17:46.206Z,100523.51
2019-02-18T20:20:36.410Z,100519.11
2019-02-18T20:23:26.396Z,100518.81
2019-02-18T20:26:16.469Z,100508.89
2019-02-18T20:29:06.551Z,100505.50
2019-02-18T20:31:56.172Z,100515.35
2019-02-18T20:34:45.759Z,100509.88
2019-02-18T20:37:36.051Z,100511.75
2019-02-18T20:40:25.998Z,100499.97
2019-02-18T20:43:16.398Z,100504.13
2019-02-18T20:46:06.441Z,100501.95
2019-02-18T20:49:04.639Z,100507.42
2019-02-18T20:52:01.268Z,100510.66
2019-02-18T20:54:57.541Z,100502.14
2019-02-18T20:57:47.755Z,100502.66
2019-02-18T21:00:37.826Z,100503.70
2019-02-18T21:03:28.163Z,100503.60
2019-02-18T21:06:24.578Z,100500.30
2019-02-18T21:09:23.102Z,100500.70
2019-02-18T21:12:20.157Z,100508.98
2019-02-18T21:15:13.107Z,100505.14
2019-02-18T21:18:03.652Z,100505.88
2019-02-18T21:20:54.251Z,100505.47
2019-02-18T21:23:44.700Z,100493.15
2019-02-18T21:26:36.732Z,100494.56
2019-02-18T21:29:26.651Z,100501.09
2019-02-18T21:32:16.714Z,100500.41
2019-02-18T21:35:06.885Z,100498.33
2019-02-18T21:37:57.080Z,100501.11
2019-02-18T21:40:47.359Z,100501.61
2019-02-18T21:43:37.388Z,100493.03
2019-02-18T21:46:27.432Z,100490.51
2019-02-18T21:49:17.159Z,100490.20
2019-02-18T21:52:06.926Z,100495.84
2019-02-18T21:54:56.915Z,100486.93
2019-02-18T21:57:47.109Z,100493.30
2019-02-18T22:00:37.026Z,100484.37
2019-02-18T22:03:27.100Z,100488.89
2019-02-18T22:06:16.953Z,100486.17
2019-02-18T22:09:08.112Z,100490.30
2019-02-18T22:11:59.524Z,100494.08
2019-02-18T22:14:49.701Z,100485.78
2019-02-18T22:17:40.244Z,100472.45
2019-02-18T22:20:29.779Z,100481.31
2019-02-18T22:23:19.253Z,100488.48
2019-02-18T22:26:09.602Z,100486.69
2019-02-18T22:28:59.789Z,100495.16
2019-02-18T22:31:50.246Z,100495.66
2019-02-18T22:34:41.973Z,100502.03
2019-02-18T22:37:32.109Z,100498.73
2019-02-18T22:40:22.433Z,100495.41
2019-02-18T22:43:13.095Z,100498.81
2019-02-18T22:46:06.927Z,100496.39
2019-02-18T22:48:58.110Z,100493.66
2019-02-18T22:51:51.059Z,100500.14
2019-02-18T22:54:45.284Z,100496.70
2019-02-18T22:57:35.186Z,100498.63
2019-02-18T23:01:02.511Z,100499.31
2019-02-18T23:03:52.745Z,100506.09
2019-02-18T23:06:42.935Z,100495.52
2019-02-18T23:09:32.928Z,100503.80
2019-02-18T23:12:22.676Z,100506.23
2019-02-18T23:15:12.493Z,100505.09
2019-02-18T23:18:02.611Z,100505.53
2019-02-18T23:20:52.335Z,100503.23
2019-02-18T23:23:43.611Z,100503.63
2019-02-18T23:26:33.246Z,100502.66
2019-02-18T23:29:23.306Z,100502.41
2019-02-18T23:32:13.491Z,100499.59
2019-02-18T23:35:03.597Z,100501.13
2019-02-18T23:37:53.698Z,100505.16
2019-02-18T23:40:43.793Z,100495.64
2019-02-18T23:43:33.863Z,100494.17
2019-02-18T23:46:24.052Z,100491.23
2019-02-18T23:49:14.307Z,100493.27
2019-02-18T23:52:04.545Z,100493.98
2019-02-18T23:54:54.387Z,100500.67
2019-02-18T23:57:43.795Z,100496.22
